Time;durP1;ratioP1;P1;durP2;ratioP2;P2;SDS_P1;SDS_P2;PMS_P1;PMS_P2;Temp;Humidity;BMP_temperature;BMP_pressure;BME280_temperature;BME280_humidity;BME280_pressure;Samples;Min_cycle;Max_cycle;Signal;HPM_P1;HPM_P2
2023/10/17 00:01:10;;;;;;;;;3.00;3.00;;;;;11.39;51.97;100999.69;6186409;23;45261;-64
2023/10/17 00:03:37;;;;;;;;;3.00;2.00;;;;;11.35;52.35;100997.19;6185203;23;45396;-64
2023/10/17 00:06:03;;;;;;;;;2.00;2.00;;;;;11.33;52.31;100991.88;6184005;23;45572;-64
2023/10/17 00:08:32;;;;;;;;;3.25;2.00;;;;;11.35;52.41;100992.69;6186267;23;45272;-64
2023/10/17 00:11:07;;;;;;;;;2.00;2.00;;;;;11.36;52.17;100989.13;6183874;23;45514;-64
2023/10/17 00:13:44;;;;;;;;;3.00;3.00;;;;;11.41;52.24;100992.50;6185882;23;45524;-64
2023/10/17 00:16:12;;;;;;;;;4.50;3.00;;;;;11.35;52.19;100992.69;6209254;22;45745;-64
2023/10/17 00:18:38;;;;;;;;;2.00;2.00;;;;;11.40;52.17;100997.91;6185863;23;45407;-64
2023/10/17 00:21:22;;;;;;;;;4.00;2.25;;;;;11.32;52.37;100987.44;6185818;23;45387;-64
2023/10/17 00:23:50;;;;;;;;;3.50;3.50;;;;;11.40;52.10;100998.78;6185859;23;45991;-64
2023/10/17 00:26:18;;;;;;;;;3.00;3.00;;;;;11.38;52.50;100991.75;6185553;23;45162;-64
2023/10/17 00:28:44;;;;;;;;;2.50;0.75;;;;;11.35;52.26;100983.81;6186175;23;45326;-64
2023/10/17 00:31:10;;;;;;;;;2.50;2.50;;;;;11.32;52.62;100968.75;6186006;23;45198;-64
2023/10/17 00:33:37;;;;;;;;;4.25;3.00;;;;;11.33;52.61;100970.50;6185213;23;46280;-64
2023/10/17 00:36:04;;;;;;;;;4.75;2.25;;;;;11.33;52.13;100983.88;6159200;23;45873;-64
2023/10/17 00:38:35;;;;;;;;;2.00;2.00;;;;;11.31;52.90;100989.25;6185626;23;45304;-64
2023/10/17 00:41:05;;;;;;;;;2.00;2.00;;;;;11.26;52.80;100960.91;6183987;23;45562;-64
2023/10/17 00:43:31;;;;;;;;;2.00;2.00;;;;;11.32;52.71;100963.38;6185840;23;45392;-64
2023/10/17 00:45:56;;;;;;;;;4.00;4.00;;;;;11.32;52.90;100960.72;6186197;23;45453;-64
2023/10/17 00:48:24;;;;;;;;;2.00;2.00;;;;;11.38;52.30;100968.56;6186114;23;45261;-64
2023/10/17 00:50:56;;;;;;;;;2.00;2.00;;;;;11.31;53.11;100956.31;6185682;23;45254;-64
2023/10/17 00:53:21;;;;;;;;;3.50;3.50;;;;;11.34;52.92;100966.88;6185370;23;47042;-64
2023/10/17 00:55:50;;;;;;;;;3.00;2.25;;;;;11.33;52.84;100965.16;6185633;23;45264;-64
2023/10/17 00:58:18;;;;;;;;;3.50;2.50;;;;;11.25;52.54;100951.16;6185391;23;45340;-64
2023/10/17 01:00:54;;;;;;;;;1.50;1.50;;;;;11.23;52.71;100948.53;6185854;23;45308;-64
2023/10/17 01:03:20;;;;;;;;;2.00;1.75;;;;;11.13;53.27;100939.06;6184612;23;46235;-64
2023/10/17 01:05:57;;;;;;;;;3.75;2.50;;;;;11.12;52.73;100950.66;6159651;23;45210;-64
2023/10/17 01:08:44;;;;;;;;;3.75;3.75;;;;;11.03;53.00;100950.97;6185784;23;45333;-64
2023/10/17 01:11:16;;;;;;;;;3.00;3.00;;;;;11.05;53.80;100955.31;6186108;23;45299;-64
2023/10/17 01:13:43;;;;;;;;;2.00;2.00;;;;;11.09;53.53;100950.75;6184773;23;46161;-64
2023/10/17 01:16:12;;;;;;;;;4.25;3.25;;;;;11.06;53.39;100934.81;6186069;23;45564;-64
2023/10/17 01:18:37;;;;;;;;;4.00;2.50;;;;;11.00;53.61;100925.22;6185386;23;45308;-64
2023/10/17 01:21:04;;;;;;;;;4.00;3.00;;;;;11.06;53.78;100932.16;6185634;23;45539;-64
2023/10/17 01:23:31;;;;;;;;;4.00;2.50;;;;;11.04;53.73;100929.56;6158651;23;47255;-64
2023/10/17 01:25:57;;;;;;;;;3.00;3.00;;;;;11.05;53.83;100925.94;6185593;23;45254;-64
2023/10/17 01:28:22;;;;;;;;;3.00;3.00;;;;;10.89;53.46;100898.84;6186294;23;45259;-64
2023/10/17 01:30:48;;;;;;;;;5.00;2.75;;;;;10.92;53.69;100916.56;6185605;23;45757;-64
2023/10/17 01:33:13;;;;;;;;;5.75;4.00;;;;;10.89;53.32;100900.63;6184793;23;45288;-64
2023/10/17 01:35:44;;;;;;;;;4.00;4.00;;;;;10.96;53.84;100920.00;6158403;23;45302;-64
2023/10/17 01:38:09;;;;;;;;;2.50;2.25;;;;;10.88;53.53;100904.25;6209327;22;45345;-64
2023/10/17 01:40:34;;;;;;;;;2.00;2.00;;;;;10.90;53.39;100931.75;6159077;23;45539;-64
2023/10/17 01:43:00;;;;;;;;;3.00;3.00;;;;;10.88;53.67;100933.63;6134025;23;47342;-64
2023/10/17 01:45:27;;;;;;;;;3.25;3.25;;;;;10.86;53.67;100930.09;6158719;23;45254;-64
2023/10/17 01:47:52;;;;;;;;;4.00;3.00;;;;;10.77;53.81;100919.72;6185466;23;45484;-64
2023/10/17 01:50:26;;;;;;;;;3.25;3.00;;;;;10.82;53.96;100929.31;6186157;23;45257;-64
2023/10/17 01:52:58;;;;;;;;;3.50;3.50;;;;;10.80;54.16;100930.28;6158460;23;47722;-64
2023/10/17 01:55:27;;;;;;;;;4.00;4.00;;;;;10.86;54.13;100940.78;6185568;23;45672;-64
2023/10/17 01:57:59;;;;;;;;;2.75;2.50;;;;;10.90;54.53;100947.78;6185434;23;45185;-64
2023/10/17 02:00:37;;;;;;;;;2.25;2.25;;;;;10.79;53.82;100928.53;6185975;23;45324;-64
2023/10/17 02:03:03;;;;;;;;;3.75;2.75;;;;;10.78;54.25;100932.16;6185004;23;45450;-64
2023/10/17 02:05:29;;;;;;;;;4.00;4.00;;;;;10.83;54.09;100946.22;6183987;23;45289;-64
2023/10/17 02:07:55;;;;;;;;;3.00;2.00;;;;;10.77;54.10;100944.59;6185721;23;45313;-64
2023/10/17 02:10:29;;;;;;;;;5.00;4.00;;;;;10.66;54.42;100936.03;6158856;23;45592;-64
2023/10/17 02:12:54;;;;;;;;;3.00;3.00;;;;;10.73;54.37;100941.16;6184778;23;46291;-64
2023/10/17 02:15:20;;;;;;;;;4.50;3.75;;;;;10.55;54.31;100912.34;6185067;23;45227;-64
2023/10/17 02:17:47;;;;;;;;;2.75;2.75;;;;;10.78;54.34;100941.03;6185003;23;45437;-64
2023/10/17 02:20:29;;;;;;;;;2.00;2.00;;;;;10.69;54.77;100919.94;6185692;23;45491;-64
2023/10/17 02:23:12;;;;;;;;;2.00;2.00;;;;;10.62;54.64;100913.91;6175274;23;46180;-64
2023/10/17 02:25:41;;;;;;;;;6.00;4.75;;;;;10.70;54.63;100930.56;6185744;23;45245;-64
2023/10/17 02:28:07;;;;;;;;;2.50;2.00;;;;;10.60;54.49;100914.88;6185551;23;45333;-64
2023/10/17 02:30:32;;;;;;;;;4.00;3.50;;;;;10.66;54.97;100928.91;6183411;23;45484;-64
2023/10/17 02:32:59;;;;;;;;;4.25;3.00;;;;;10.61;55.03;100927.28;6184457;23;46281;-64
2023/10/17 02:35:40;;;;;;;;;3.50;3.00;;;;;10.67;55.24;100929.78;6185099;23;45627;-64
2023/10/17 02:38:06;;;;;;;;;3.75;3.75;;;;;10.70;54.71;100929.69;6185798;23;45457;-64
2023/10/17 02:40:38;;;;;;;;;5.00;3.00;;;;;10.70;54.76;100938.56;6158684;23;45421;-64
2023/10/17 02:43:03;;;;;;;;;2.75;2.75;;;;;10.68;55.25;100937.75;6183180;23;47249;-64
2023/10/17 02:45:29;;;;;;;;;5.00;3.00;;;;;10.59;54.73;100930.00;6185122;23;45251;-64
2023/10/17 02:47:57;;;;;;;;;5.00;3.50;;;;;10.57;55.57;100934.50;6185609;23;45252;-64
2023/10/17 02:52:57;;;;;;;;;6.00;2.75;;;;;10.54;55.68;100916.81;6185210;23;45394;-64
2023/10/17 02:55:26;;;;;;;;;4.25;4.25;;;;;10.60;55.65;100925.56;6184867;23;45393;-64
2023/10/17 02:57:55;;;;;;;;;5.00;3.00;;;;;10.50;55.01;100911.59;6184734;23;45397;-64
2023/10/17 03:00:47;;;;;;;;;2.50;2.50;;;;;10.57;55.39;100930.06;6183362;23;45870;-64
2023/10/17 03:03:13;;;;;;;;;4.50;4.50;;;;;10.50;55.48;100922.28;6183419;23;46046;-64
2023/10/17 03:05:40;;;;;;;;;4.25;3.25;;;;;10.48;55.74;100918.78;6185312;23;45566;-64
2023/10/17 03:08:10;;;;;;;;;5.00;3.50;;;;;10.43;55.50;100924.25;6158709;23;45547;-64
2023/10/17 03:10:40;;;;;;;;;4.00;4.00;;;;;10.48;56.27;100934.81;6184810;23;45252;-64
2023/10/17 03:15:46;;;;;;;;;5.00;3.50;;;;;10.37;56.28;100911.06;6181038;23;45435;-64
2023/10/17 03:18:16;;;;;;;;;3.00;3.00;;;;;10.40;55.90;100923.47;6158175;23;45506;-64
2023/10/17 03:20:52;;;;;;;;;3.25;2.25;;;;;10.38;56.37;100910.16;6186508;23;45379;-64
2023/10/17 03:23:19;;;;;;;;;3.00;3.00;;;;;10.32;56.30;100903.22;6186007;23;47189;-64
2023/10/17 03:25:46;;;;;;;;;4.00;3.00;;;;;10.40;56.38;100918.13;6159563;23;45395;-64
2023/10/17 03:28:18;;;;;;;;;3.75;3.75;;;;;10.32;56.64;100910.34;6186663;23;45273;-64
2023/10/17 03:30:43;;;;;;;;;3.00;2.50;;;;;10.34;56.17;100920.06;6159456;23;45388;-64
2023/10/17 03:33:13;;;;;;;;;4.00;4.00;;;;;10.26;56.24;100913.16;6185448;23;46141;-64
2023/10/17 03:38:26;;;;;;;;;7.75;4.00;;;;;10.19;56.43;100916.00;6185923;23;45277;-64
2023/10/17 03:41:02;;;;;;;;;3.50;3.50;;;;;10.18;57.09;100937.38;6186261;23;45301;-64
2023/10/17 03:43:38;;;;;;;;;3.75;3.75;;;;;10.01;56.97;100909.38;6184964;23;45576;-64
2023/10/17 03:46:07;;;;;;;;;4.50;4.50;;;;;10.12;57.00;100921.53;6186370;23;45700;-64
2023/10/17 03:48:36;;;;;;;;;4.00;4.00;;;;;10.10;57.28;100910.03;6186426;23;45296;-64
2023/10/17 03:53:36;;;;;;;;;4.25;3.00;;;;;10.05;57.04;100904.81;6185449;23;45190;-64
2023/10/17 03:56:02;;;;;;;;;4.00;4.00;;;;;10.11;57.23;100918.00;6185893;23;45316;-64
2023/10/17 03:58:43;;;;;;;;;3.25;3.00;;;;;9.99;57.34;100894.34;6159081;23;45335;-64
2023/10/17 04:01:10;;;;;;;;;7.50;6.00;;;;;10.10;57.52;100908.22;6186011;23;45467;-64
2023/10/17 04:03:36;;;;;;;;;5.00;3.00;;;;;10.05;57.22;100910.16;6185377;23;45480;-64
2023/10/17 04:08:38;;;;;;;;;5.75;5.75;;;;;10.06;57.26;100919.91;6186112;23;45428;-64
2023/10/17 04:11:49;;;;;;;;;8.00;4.75;;;;;10.01;57.63;100919.16;6186461;23;45761;-64
2023/10/17 04:14:00;;;;;;;;;4.00;3.50;;;;;9.92;57.63;100901.63;6155393;23;46674;-64
2023/10/17 04:16:33;;;;;;;;;3.00;3.00;;;;;9.99;57.81;100923.69;6186439;23;45250;-64
2023/10/17 04:19:00;;;;;;;;;3.25;3.25;;;;;9.97;57.50;100915.72;6185870;23;45342;-64
2023/10/17 04:21:27;;;;;;;;;5.25;5.25;;;;;9.78;57.71;100886.00;6185957;23;45332;-64
2023/10/17 04:23:53;;;;;;;;;5.25;5.25;;;;;9.70;57.79;100879.13;6208884;22;47325;-64
2023/10/17 04:26:19;;;;;;;;;4.00;4.00;;;;;9.88;57.80;100907.94;6159798;23;45538;-64
2023/10/17 04:28:51;;;;;;;;;5.50;4.00;;;;;9.85;57.92;100912.50;6186397;23;45320;-64
2023/10/17 04:31:28;;;;;;;;;3.00;3.00;;;;;9.73;58.29;100903.03;6159264;23;45294;-64
2023/10/17 04:34:06;;;;;;;;;3.00;3.00;;;;;9.83;58.69;100916.06;6158428;23;46733;-64
2023/10/17 04:36:38;;;;;;;;;7.75;4.00;;;;;9.88;58.53;100920.41;6185941;23;45383;-64
2023/10/17 04:39:12;;;;;;;;;4.00;4.00;;;;;9.77;58.73;100899.34;6186041;23;45473;-64
2023/10/17 04:44:15;;;;;;;;;4.75;3.50;;;;;9.87;58.37;100911.53;6185389;23;45386;-64
2023/10/17 04:46:49;;;;;;;;;5.00;4.00;;;;;9.79;58.56;100901.09;6185481;23;45375;-64
2023/10/17 04:49:18;;;;;;;;;7.50;5.00;;;;;9.79;58.89;100897.56;6186273;23;45247;-64
2023/10/17 04:51:43;;;;;;;;;4.00;4.00;;;;;9.79;58.54;100897.56;6185726;23;45396;-64
2023/10/17 04:56:58;;;;;;;;;4.00;4.00;;;;;9.75;58.50;100893.19;6185722;23;45336;-64
2023/10/17 05:07:27;;;;;;;;;6.25;3.25;;;;;9.64;58.99;100873.03;6185801;23;45261;-64
2023/10/17 06:18:17;;;;;;;;;8.75;6.00;;;;;9.43;60.34;100905.56;6183934;23;45684;-65
2023/10/17 06:34:16;;;;;;;;;6.00;6.00;;;;;9.33;60.46;100893.38;6184661;23;45561;-66
2023/10/17 06:36:44;;;;;;;;;12.75;7.75;;;;;9.43;60.37;100909.09;6185090;23;45282;-65
2023/10/17 06:39:57;;;;;;;;;8.25;6.25;;;;;9.40;60.80;100911.84;6184666;23;45466;-65
2023/10/17 06:42:14;;;;;;;;;7.00;7.00;;;;;9.36;60.57;100906.66;6170265;23;46351;-65
2023/10/17 06:44:53;;;;;;;;;7.75;7.50;;;;;9.27;61.12;100900.63;6184578;23;45291;-65
2023/10/17 06:47:31;;;;;;;;;6.50;6.50;;;;;9.32;60.88;100912.94;6158192;23;45278;-65
2023/10/17 06:52:54;;;;;;;;;7.75;6.50;;;;;9.28;60.88;100901.50;6182290;23;45368;-65
2023/10/17 06:55:21;;;;;;;;;6.00;5.50;;;;;9.21;61.26;100890.09;6183545;23;45389;-65
2023/10/17 06:57:50;;;;;;;;;8.50;8.50;;;;;9.34;61.09;100916.44;6184705;23;45514;-65
2023/10/17 07:00:18;;;;;;;;;11.50;8.25;;;;;9.33;61.45;100909.38;6183789;23;45447;-66
2023/10/17 07:02:48;;;;;;;;;8.50;8.00;;;;;9.37;61.36;100905.72;6181896;23;45535;-65
2023/10/17 07:05:14;;;;;;;;;9.50;7.75;;;;;9.39;61.22;100907.44;6183297;23;46891;-65
2023/10/17 07:07:40;;;;;;;;;9.00;9.00;;;;;9.51;60.91;100919.56;6183692;23;45395;-65
2023/10/17 07:10:16;;;;;;;;;8.50;7.00;;;;;9.54;61.10;100918.59;6184962;23;45494;-64
2023/10/17 07:12:47;;;;;;;;;9.00;6.25;;;;;9.46;61.08;100902.84;6183481;23;45488;-64
2023/10/17 07:15:13;;;;;;;;;7.00;7.00;;;;;9.48;60.87;100901.00;6184999;23;45673;-65
2023/10/17 07:17:48;;;;;;;;;6.00;4.00;;;;;9.42;61.24;100894.03;6184522;23;45278;-64
2023/10/17 07:20:29;;;;;;;;;8.75;8.25;;;;;9.42;60.68;100906.47;6184794;23;45435;-65
2023/10/17 07:22:57;;;;;;;;;5.25;4.50;;;;;9.36;60.93;100911.97;6158369;23;46106;-64
2023/10/17 07:25:22;;;;;;;;;7.00;7.00;;;;;9.40;60.99;100911.84;6185571;23;45707;-64
2023/10/17 07:27:49;;;;;;;;;7.25;7.25;;;;;9.39;61.04;100910.09;6186228;23;45673;-65
2023/10/17 07:30:24;;;;;;;;;9.25;7.00;;;;;9.42;61.35;100906.47;6183869;23;45269;-64
2023/10/17 07:32:54;;;;;;;;;10.75;8.50;;;;;9.41;61.28;100905.59;6182922;23;46956;-64
2023/10/17 07:35:25;;;;;;;;;7.75;7.75;;;;;9.54;61.44;100908.84;6185224;23;45633;-64
2023/10/17 07:37:54;;;;;;;;;7.75;7.00;;;;;9.57;61.37;100918.53;6185594;23;45497;-64
2023/10/17 07:40:58;;;;;;;;;9.25;6.25;;;;;9.42;61.29;100896.72;6155716;23;45568;-65
2023/10/17 07:43:21;;;;;;;;;6.75;6.75;;;;;9.42;61.12;100904.69;6160794;23;45390;-65
2023/10/17 07:45:55;;;;;;;;;8.00;7.00;;;;;9.51;61.12;100914.25;6183995;23;45352;-64
2023/10/17 07:48:25;;;;;;;;;7.25;6.00;;;;;9.41;60.94;100902.94;6183675;23;45399;-64
2023/10/17 07:50:51;;;;;;;;;14.00;10.25;;;;;9.44;61.75;100910.84;6183334;23;45253;-64
2023/10/17 07:53:20;;;;;;;;;9.75;8.00;;;;;9.54;61.42;100921.28;6183641;23;46346;-65
2023/10/17 07:56:03;;;;;;;;;7.25;7.25;;;;;9.48;61.62;100909.00;6184830;23;45261;-65
2023/10/17 07:58:45;;;;;;;;;12.00;12.00;;;;;9.52;61.99;100902.69;6184057;23;45430;-64
2023/10/17 08:01:14;;;;;;;;;8.50;8.50;;;;;9.53;61.63;100901.75;6183489;23;45405;-64
2023/10/17 08:04:13;;;;;;;;;10.00;9.00;;;;;9.58;62.19;100898.97;6154048;23;47911;-64
2023/10/17 08:06:31;;;;;;;;;8.75;8.75;;;;;9.65;61.28;100908.56;6180557;23;45679;-64
2023/10/17 08:08:58;;;;;;;;;9.00;8.00;;;;;9.62;61.38;100903.28;6184056;23;45383;-64
2023/10/17 08:11:26;;;;;;;;;7.25;5.75;;;;;9.68;61.62;100902.28;6184220;23;45403;-64
2023/10/17 08:13:56;;;;;;;;;8.50;8.00;;;;;9.67;62.16;100889.84;6182073;23;45629;-64
2023/10/17 08:16:32;;;;;;;;;9.00;7.50;;;;;9.75;61.94;100903.88;6183797;23;45438;-64
2023/10/17 08:19:13;;;;;;;;;13.00;11.25;;;;;9.89;62.03;100914.16;6183560;23;45418;-64
2023/10/17 08:24:33;;;;;;;;;10.00;8.00;;;;;9.87;61.76;100914.19;6181804;23;45278;-64
2023/10/17 08:27:40;;;;;;;;;10.25;9.00;;;;;9.94;61.67;100920.22;6182680;23;45973;-64
2023/10/17 08:30:13;;;;;;;;;12.50;9.50;;;;;9.89;62.27;100909.72;6182394;23;45762;-63
2023/10/17 08:32:39;;;;;;;;;7.25;7.25;;;;;10.01;61.95;100914.69;6181744;23;45543;-64
2023/10/17 08:35:11;;;;;;;;;14.25;14.00;;;;;9.95;62.22;100896.19;6182998;23;45325;-65
2023/10/17 08:37:44;;;;;;;;;13.75;11.25;;;;;10.00;61.76;100904.94;6182933;23;45444;-65
2023/10/17 08:40:29;;;;;;;;;15.00;10.25;;;;;10.20;61.75;100922.19;6181138;23;45486;-65
2023/10/17 08:42:56;;;;;;;;;11.25;9.00;;;;;10.21;61.89;100905.28;6183120;23;45456;-65
2023/10/17 08:45:26;;;;;;;;;9.25;8.25;;;;;10.31;61.94;100904.09;6181709;23;46102;-65
2023/10/17 08:48:00;;;;;;;;;10.75;9.50;;;;;10.24;61.39;100877.63;6181847;23;45599;-65
2023/10/17 08:50:30;;;;;;;;;10.25;9.25;;;;;10.33;61.81;100891.63;6183709;23;45356;-65
2023/10/17 08:52:59;;;;;;;;;11.00;8.75;;;;;10.48;61.67;100900.97;6156402;23;45474;-65
2023/10/17 08:55:25;;;;;;;;;9.00;8.25;;;;;10.42;61.76;100878.91;6183090;23;45870;-66
2023/10/17 08:57:51;;;;;;;;;10.50;10.00;;;;;10.59;61.58;100905.97;6183145;23;45642;-66
2023/10/17 09:00:23;;;;;;;;;11.50;10.00;;;;;10.65;61.27;100897.78;6182495;23;45326;-66
2023/10/17 09:03:00;;;;;;;;;11.00;10.00;;;;;10.70;60.85;100890.50;6181807;23;45397;-65
2023/10/17 09:05:26;;;;;;;;;14.75;10.00;;;;;10.73;61.42;100902.91;6181128;23;47034;-65
2023/10/17 09:07:58;;;;;;;;;9.00;8.00;;;;;10.64;61.04;100869.38;6183215;23;45391;-65
2023/10/17 09:10:40;;;;;;;;;11.25;10.75;;;;;10.75;61.02;100880.56;6182159;23;45371;-65
2023/10/17 09:15:57;;;;;;;;;14.00;11.75;;;;;10.80;60.88;100866.22;6181355;23;45430;-65
2023/10/17 09:18:27;;;;;;;;;12.00;12.00;;;;;10.90;60.94;100878.34;6181364;23;45385;-65
2023/10/17 09:20:57;;;;;;;;;14.50;12.00;;;;;10.86;60.53;100874.00;6183101;23;45380;-65
2023/10/17 09:23:28;;;;;;;;;10.75;10.25;;;;;10.93;61.41;100867.56;6181448;23;45490;-65
2023/10/17 09:26:00;;;;;;;;;12.75;9.25;;;;;10.91;61.38;100848.06;6181366;23;46421;-65
2023/10/17 09:28:28;;;;;;;;;8.25;8.25;;;;;11.06;61.28;100858.25;6182529;23;45250;-65
2023/10/17 09:31:08;;;;;;;;;10.00;10.00;;;;;11.17;60.83;100865.88;6183566;23;45445;-66
2023/10/17 09:33:35;;;;;;;;;10.75;10.00;;;;;11.30;60.86;100885.06;6180995;23;45335;-66
2023/10/17 09:36:04;;;;;;;;;11.00;10.00;;;;;11.37;60.69;100880.41;6182192;23;46137;-65
2023/10/17 09:38:33;;;;;;;;;7.75;6.75;;;;;11.34;60.94;100861.78;6156008;23;45799;-66
2023/10/17 09:41:00;;;;;;;;;13.75;12.00;;;;;11.41;60.17;100866.88;6156656;23;45354;-66
2023/10/17 09:43:25;;;;;;;;;9.00;9.00;;;;;11.44;60.89;100853.44;6182642;23;45374;-66
2023/10/17 09:45:54;;;;;;;;;8.25;8.25;;;;;11.57;60.55;100863.69;6183184;23;45426;-66
2023/10/17 09:48:32;;;;;;;;;8.75;8.00;;;;;11.58;60.54;100849.41;6181613;23;45268;-66
2023/10/17 09:51:01;;;;;;;;;13.25;9.75;;;;;11.69;60.75;100857.91;6183440;23;45438;-66
2023/10/17 09:53:30;;;;;;;;;12.75;9.75;;;;;11.78;60.12;100862.06;6154822;23;45520;-66
2023/10/17 09:56:00;;;;;;;;;10.50;9.25;;;;;11.90;60.29;100866.97;6204785;22;46210;-66
2023/10/17 09:58:30;;;;;;;;;9.50;9.00;;;;;11.95;60.35;100869.53;6182479;23;45578;-66
2023/10/17 10:01:20;;;;;;;;;9.25;8.25;;;;;12.00;60.47;100859.53;6156537;23;45306;-66
2023/10/17 10:03:48;;;;;;;;;12.00;12.00;;;;;12.07;60.78;100844.13;6180434;23;45454;-66
2023/10/17 10:06:32;;;;;;;;;9.50;8.75;;;;;12.17;60.58;100857.09;6180144;23;45907;-66
2023/10/17 10:09:01;;;;;;;;;10.50;10.50;;;;;12.25;60.06;100859.50;6156243;23;45654;-66
2023/10/17 10:11:48;;;;;;;;;13.25;11.25;;;;;12.28;59.79;100855.81;6183725;23;45458;-66
2023/10/17 10:14:13;;;;;;;;;10.75;10.00;;;;;12.17;59.54;100835.69;6155450;23;45392;-66
2023/10/17 10:16:49;;;;;;;;;6.25;5.00;;;;;12.19;59.53;100832.94;6182781;23;45304;-66
2023/10/17 10:19:17;;;;;;;;;7.00;7.00;;;;;12.29;59.71;100844.19;6181038;23;45690;-66
2023/10/17 10:22:00;;;;;;;;;14.75;13.50;;;;;12.36;60.13;100840.31;6181257;23;45359;-66
2023/10/17 10:24:36;;;;;;;;;10.50;9.50;;;;;12.45;59.68;100849.84;6182777;23;45439;-66
2023/10/17 10:27:14;;;;;;;;;7.00;7.00;;;;;12.54;59.71;100841.44;6181806;23;46138;-66
2023/10/17 10:29:40;;;;;;;;;7.75;7.00;;;;;12.62;60.02;100843.81;6182682;23;45723;-66
2023/10/17 10:32:06;;;;;;;;;8.25;8.25;;;;;12.57;59.77;100823.44;6183009;23;45729;-66
2023/10/17 10:34:39;;;;;;;;;12.25;11.00;;;;;12.75;59.66;100831.69;6182281;23;45414;-66
2023/10/17 10:37:04;;;;;;;;;8.25;8.25;;;;;12.84;59.58;100831.31;6183028;23;45925;-66
2023/10/17 10:39:30;;;;;;;;;11.75;10.00;;;;;12.91;59.42;100823.88;6206845;22;45281;-66
2023/10/17 10:42:07;;;;;;;;;13.00;9.75;;;;;12.85;58.96;100808.94;6155031;23;45362;-65
2023/10/17 10:44:42;;;;;;;;;10.00;7.75;;;;;13.00;58.94;100823.53;6182445;23;45415;-66
2023/10/17 10:47:08;;;;;;;;;14.00;13.25;;;;;13.04;59.25;100818.91;6183813;23;45530;-66
2023/10/17 10:49:34;;;;;;;;;11.00;10.75;;;;;12.98;58.99;100801.28;6183084;23;45478;-66
2023/10/17 10:51:59;;;;;;;;;14.50;12.75;;;;;13.12;58.81;100825.69;6182315;23;45417;-66
2023/10/17 10:54:45;;;;;;;;;10.25;7.50;;;;;13.20;58.82;100824.47;6182854;23;45443;-66
2023/10/17 10:57:12;;;;;;;;;17.00;14.25;;;;;13.20;59.05;100814.66;6182189;23;46197;-65
2023/10/17 10:59:48;;;;;;;;;15.50;13.50;;;;;13.27;58.51;100815.28;6183706;23;45284;-66
2023/10/17 11:02:14;;;;;;;;;11.00;9.00;;;;;13.29;58.65;100816.94;6182588;23;45453;-66
2023/10/17 11:04:39;;;;;;;;;11.50;10.00;;;;;13.24;58.09;100805.53;6156759;23;45300;-66
2023/10/17 11:07:21;;;;;;;;;12.75;12.00;;;;;13.36;58.31;100812.22;6156933;23;45630;-66
2023/10/17 11:10:07;;;;;;;;;7.00;7.00;;;;;13.35;58.47;100797.09;6183017;23;45607;-66
2023/10/17 11:12:33;;;;;;;;;9.00;9.00;;;;;13.46;58.20;100807.34;6180673;23;45446;-66
2023/10/17 11:15:10;;;;;;;;;12.00;10.75;;;;;13.58;58.31;100822.91;6182748;23;45377;-66
2023/10/17 11:17:37;;;;;;;;;8.75;8.50;;;;;13.63;58.21;100815.53;6155872;23;47160;-64
2023/10/17 11:20:13;;;;;;;;;12.00;9.75;;;;;13.68;58.06;100807.25;6183082;23;45570;-66
2023/10/17 11:22:40;;;;;;;;;9.00;9.00;;;;;13.63;58.22;100787.81;6179198;23;45385;-66
2023/10/17 11:25:08;;;;;;;;;9.75;9.75;;;;;13.62;58.51;100765.50;6181322;23;45389;-66
2023/10/17 11:27:34;;;;;;;;;15.50;12.00;;;;;13.82;58.20;100786.06;6182551;23;46994;-66
2023/10/17 11:29:59;;;;;;;;;10.75;10.00;;;;;13.94;58.45;100790.00;6182558;23;45343;-66
2023/10/17 11:32:26;;;;;;;;;11.00;10.00;;;;;14.01;58.37;100791.44;6180112;23;45320;-66
2023/10/17 11:35:05;;;;;;;;;11.00;10.50;;;;;14.02;58.13;100777.09;6181554;23;45399;-66
2023/10/17 11:37:34;;;;;;;;;10.25;9.00;;;;;14.09;57.74;100773.19;6180405;23;47428;-66
2023/10/17 11:40:17;;;;;;;;;14.50;12.75;;;;;14.13;57.93;100757.78;6180640;23;45839;-66
2023/10/17 11:42:42;;;;;;;;;12.25;9.75;;;;;14.18;57.79;100752.22;6181047;23;45472;-66
2023/10/17 11:45:33;;;;;;;;;12.25;12.00;;;;;14.25;57.61;100757.22;6181690;23;45259;-66
2023/10/17 11:47:57;;;;;;;;;9.50;9.00;;;;;14.35;57.62;100757.66;6160240;23;45377;-66
2023/10/17 11:50:38;;;;;;;;;10.25;10.00;;;;;14.34;57.46;100737.13;6182679;23;45361;-66
2023/10/17 11:53:12;;;;;;;;;8.25;8.25;;;;;14.45;57.93;100752.72;6155250;23;45416;-66
2023/10/17 11:55:43;;;;;;;;;9.50;9.25;;;;;14.42;57.54;100726.88;6182329;23;45320;-65
2023/10/17 11:58:08;;;;;;;;;10.50;8.00;;;;;14.56;57.58;100736.94;6183176;23;45396;-66
2023/10/17 12:00:35;;;;;;;;;8.00;8.00;;;;;14.60;57.21;100729.63;6183929;23;45635;-66
2023/10/17 12:03:00;;;;;;;;;11.50;9.75;;;;;14.66;57.64;100736.53;6181216;23;45475;-66
2023/10/17 12:05:27;;;;;;;;;10.00;9.00;;;;;14.65;57.59;100724.94;6181042;23;50636;-66
2023/10/17 12:07:54;;;;;;;;;9.75;9.75;;;;;14.75;57.80;100734.28;6182479;23;46170;-66
2023/10/17 12:10:20;;;;;;;;;10.00;8.25;;;;;14.66;57.27;100699.78;6182042;23;45637;-65
2023/10/17 12:12:46;;;;;;;;;11.25;7.25;;;;;14.86;57.80;100711.34;6155904;23;45336;-66
2023/10/17 12:15:13;;;;;;;;;8.00;3.25;;;;;14.88;57.55;100701.38;6183042;23;45502;-66
2023/10/17 12:17:41;;;;;;;;;9.50;9.00;;;;;14.98;57.78;100706.22;6182171;23;46794;-66
2023/10/17 12:20:11;;;;;;;;;8.00;8.00;;;;;14.96;57.58;100683.06;6183801;22;45230;-66
2023/10/17 12:22:36;;;;;;;;;10.00;9.50;;;;;14.98;57.56;100697.28;6181077;23;45524;-65
2023/10/17 12:25:03;;;;;;;;;10.25;7.50;;;;;15.07;57.69;100694.13;6183615;23;45417;-66
2023/10/17 12:27:30;;;;;;;;;8.00;8.00;;;;;15.18;57.46;100705.19;6182844;23;45411;-64
2023/10/17 12:29:56;;;;;;;;;10.25;9.75;;;;;15.24;57.18;100697.75;6180246;23;45699;-66
2023/10/17 12:32:22;;;;;;;;;8.00;8.00;;;;;15.29;57.32;100698.38;6178163;23;45399;-65
2023/10/17 12:34:49;;;;;;;;;8.00;8.00;;;;;15.35;57.32;100692.66;6178110;23;45714;-66
2023/10/17 12:37:17;;;;;;;;;10.25;9.00;;;;;15.31;57.55;100675.81;6179034;23;45427;-66
2023/10/17 12:39:43;;;;;;;;;12.50;10.25;;;;;15.43;57.49;100687.75;6178694;23;45499;-66
2023/10/17 12:42:08;;;;;;;;;9.75;9.75;;;;;15.46;57.56;100679.50;6179731;23;45348;-66
2023/10/17 12:44:34;;;;;;;;;10.00;6.25;;;;;15.57;57.38;100671.75;6178544;23;45640;-66
2023/10/17 12:47:00;;;;;;;;;7.00;7.00;;;;;15.60;57.31;100678.75;6202602;22;46507;-66
2023/10/17 12:49:25;;;;;;;;;10.50;7.75;;;;;15.66;57.14;100672.19;6152732;23;45850;-66
2023/10/17 12:51:52;;;;;;;;;9.25;8.00;;;;;15.68;57.57;100664.91;6180445;23;45454;-66
2023/10/17 12:54:18;;;;;;;;;7.00;7.00;;;;;15.73;57.12;100660.13;6151089;23;45533;-66
2023/10/17 12:56:43;;;;;;;;;6.75;6.50;;;;;15.70;57.28;100646.84;6179064;23;45784;-66
2023/10/17 12:59:12;;;;;;;;;11.75;10.00;;;;;15.73;57.29;100642.16;6179976;23;45605;-66
2023/10/17 13:01:38;;;;;;;;;11.00;9.00;;;;;15.81;57.51;100643.59;6179181;23;45471;-66
2023/10/17 13:04:03;;;;;;;;;9.25;8.00;;;;;15.79;56.94;100643.69;6151962;23;45523;-66
2023/10/17 13:06:30;;;;;;;;;10.00;9.00;;;;;15.86;57.27;100645.06;6202337;22;47373;-66
2023/10/17 13:08:59;;;;;;;;;8.25;8.25;;;;;15.90;56.97;100635.88;6180302;23;45408;-66
2023/10/17 13:11:25;;;;;;;;;10.00;9.25;;;;;15.97;56.80;100646.28;6152204;23;45497;-66
2023/10/17 13:13:50;;;;;;;;;7.50;7.00;;;;;16.01;56.89;100651.41;6176627;23;45568;-65
2023/10/17 13:16:15;;;;;;;;;7.00;7.00;;;;;16.04;56.77;100643.16;6181447;23;45457;-66
2023/10/17 13:18:41;;;;;;;;;6.25;6.25;;;;;16.06;56.95;100635.00;6183449;23;45371;-66
2023/10/17 13:21:12;;;;;;;;;9.75;8.75;;;;;16.09;56.79;100635.69;6183103;23;45696;-66
2023/10/17 13:23:39;;;;;;;;;6.50;6.50;;;;;16.08;56.86;100627.69;6183318;23;45567;-66
2023/10/17 13:26:08;;;;;;;;;8.00;7.50;;;;;16.14;57.11;100623.78;6183567;23;46425;-66
2023/10/17 13:28:34;;;;;;;;;10.00;8.00;;;;;16.19;57.29;100627.06;6183146;23;45657;-66
2023/10/17 13:31:07;;;;;;;;;9.25;9.25;;;;;16.19;56.98;100619.88;6183010;23;45419;-66
2023/10/17 13:33:32;;;;;;;;;9.50;9.00;;;;;16.24;56.93;100614.25;6179811;23;45435;-66
2023/10/17 13:35:58;;;;;;;;;4.00;3.75;;;;;16.34;57.29;100619.94;6182787;23;46160;-66